sensor_id;sensor_type;location;lat;lon;timestamp;pressure;altitude;pressure_sealevel;temperature;humidity
64211;BME280;50528;48.514;14.394;2022-12-17T00:00:43;93597.73;;;-1.97;80.12
64211;BME280;50528;48.514;14.394;2022-12-17T00:01:36;93598.09;;;-1.97;80.03
64211;BME280;50528;48.514;14.394;2022-12-17T00:02:28;93601.92;;;-1.98;80.20
64211;BME280;50528;48.514;14.394;2022-12-17T00:03:23;93600.18;;;-1.98;80.09
64211;BME280;50528;48.514;14.394;2022-12-17T00:04:16;93606.30;;;-1.97;80.24
64211;BME280;50528;48.514;14.394;2022-12-17T00:05:09;93603.56;;;-1.97;80.15
64211;BME280;50528;48.514;14.394;2022-12-17T00:06:01;93604.53;;;-1.98;80.30
64211;BME280;50528;48.514;14.394;2022-12-17T00:06:53;93612.79;;;-1.95;80.20
64211;BME280;50528;48.514;14.394;2022-12-17T00:07:46;93612.36;;;-1.94;80.27
64211;BME280;50528;48.514;14.394;2022-12-17T00:08:39;93599.39;;;-2.01;79.98
64211;BME280;50528;48.514;14.394;2022-12-17T00:09:31;93596.80;;;-2.07;79.87
64211;BME280;50528;48.514;14.394;2022-12-17T00:10:23;93606.98;;;-2.04;80.09
64211;BME280;50528;48.514;14.394;2022-12-17T00:11:17;93609.66;;;-2.02;80.17
64211;BME280;50528;48.514;14.394;2022-12-17T00:12:10;93609.80;;;-2.02;80.24
64211;BME280;50528;48.514;14.394;2022-12-17T00:13:02;93608.44;;;-2.02;80.18
64211;BME280;50528;48.514;14.394;2022-12-17T00:13:55;93613.08;;;-2.02;80.11
64211;BME280;50528;48.514;14.394;2022-12-17T00:14:47;93611.59;;;-2.04;80.15
64211;BME280;50528;48.514;14.394;2022-12-17T00:15:39;93614.36;;;-2.03;80.16
64211;BME280;50528;48.514;14.394;2022-12-17T00:16:32;93615.65;;;-2.07;80.11
64211;BME280;50528;48.514;14.394;2022-12-17T00:17:25;93615.40;;;-2.06;79.99
64211;BME280;50528;48.514;14.394;2022-12-17T00:18:18;93617.69;;;-2.07;80.17
64211;BME280;50528;48.514;14.394;2022-12-17T00:19:10;93616.86;;;-2.07;80.21
64211;BME280;50528;48.514;14.394;2022-12-17T00:20:03;93619.39;;;-2.07;80.18
64211;BME280;50528;48.514;14.394;2022-12-17T00:20:58;93603.13;;;-2.16;80.05
64211;BME280;50528;48.514;14.394;2022-12-17T00:21:53;93617.27;;;-2.08;80.09
64211;BME280;50528;48.514;14.394;2022-12-17T00:23:00;93620.22;;;-2.09;80.20
64211;BME280;50528;48.514;14.394;2022-12-17T00:23:53;93624.26;;;-2.12;80.13
64211;BME280;50528;48.514;14.394;2022-12-17T00:24:47;93625.30;;;-2.13;80.34
64211;BME280;50528;48.514;14.394;2022-12-17T00:25:40;93618.73;;;-2.22;80.15
64211;BME280;50528;48.514;14.394;2022-12-17T00:26:32;93629.73;;;-2.15;80.21
64211;BME280;50528;48.514;14.394;2022-12-17T00:27:25;93631.24;;;-2.14;80.21
64211;BME280;50528;48.514;14.394;2022-12-17T00:28:18;93633.30;;;-2.14;80.22
64211;BME280;50528;48.514;14.394;2022-12-17T00:29:10;93632.25;;;-2.15;80.29
64211;BME280;50528;48.514;14.394;2022-12-17T00:30:04;93629.66;;;-2.14;80.23
64211;BME280;50528;48.514;14.394;2022-12-17T00:30:59;93629.05;;;-2.15;80.46
64211;BME280;50528;48.514;14.394;2022-12-17T00:31:57;93630.73;;;-2.12;80.24
64211;BME280;50528;48.514;14.394;2022-12-17T00:32:50;93630.00;;;-2.12;80.16
64211;BME280;50528;48.514;14.394;2022-12-17T00:33:43;93633.13;;;-2.11;80.06
64211;BME280;50528;48.514;14.394;2022-12-17T00:34:37;93626.36;;;-2.17;80.15
64211;BME280;50528;48.514;14.394;2022-12-17T00:35:31;93629.73;;;-2.12;80.17
64211;BME280;50528;48.514;14.394;2022-12-17T00:36:27;93631.39;;;-2.11;80.26
64211;BME280;50528;48.514;14.394;2022-12-17T00:37:19;93631.06;;;-2.10;80.13
64211;BME280;50528;48.514;14.394;2022-12-17T00:38:18;93628.84;;;-2.10;80.19
64211;BME280;50528;48.514;14.394;2022-12-17T00:39:11;93629.77;;;-2.10;80.06
64211;BME280;50528;48.514;14.394;2022-12-17T00:40:04;93631.71;;;-2.11;80.04
64211;BME280;50528;48.514;14.394;2022-12-17T00:40:56;93631.84;;;-2.10;80.09
64211;BME280;50528;48.514;14.394;2022-12-17T00:41:51;93634.38;;;-2.10;80.21
64211;BME280;50528;48.514;14.394;2022-12-17T00:42:44;93635.34;;;-2.10;80.16
64211;BME280;50528;48.514;14.394;2022-12-17T00:43:36;93629.06;;;-2.12;80.06
64211;BME280;50528;48.514;14.394;2022-12-17T00:44:29;93632.70;;;-2.09;80.17
64211;BME280;50528;48.514;14.394;2022-12-17T00:45:22;93638.17;;;-2.09;80.18
64211;BME280;50528;48.514;14.394;2022-12-17T00:46:14;93636.81;;;-2.09;80.16
64211;BME280;50528;48.514;14.394;2022-12-17T00:47:07;93641.17;;;-2.10;80.00
64211;BME280;50528;48.514;14.394;2022-12-17T00:48:01;93638.98;;;-2.10;80.10
64211;BME280;50528;48.514;14.394;2022-12-17T00:48:54;93642.33;;;-2.09;80.01
64211;BME280;50528;48.514;14.394;2022-12-17T00:49:47;93641.85;;;-2.11;80.01
64211;BME280;50528;48.514;14.394;2022-12-17T00:50:48;93646.09;;;-2.16;79.98
64211;BME280;50528;48.514;14.394;2022-12-17T00:51:42;93653.36;;;-2.20;79.84
64211;BME280;50528;48.514;14.394;2022-12-17T00:52:35;93653.07;;;-2.19;79.92
64211;BME280;50528;48.514;14.394;2022-12-17T00:53:30;93651.26;;;-2.25;80.06
64211;BME280;50528;48.514;14.394;2022-12-17T00:54:23;93652.33;;;-2.30;80.07
64211;BME280;50528;48.514;14.394;2022-12-17T00:55:16;93653.98;;;-2.33;80.16
64211;BME280;50528;48.514;14.394;2022-12-17T00:56:09;93650.73;;;-2.33;80.33
64211;BME280;50528;48.514;14.394;2022-12-17T00:57:01;93649.96;;;-2.32;80.35
64211;BME280;50528;48.514;14.394;2022-12-17T00:57:55;93647.06;;;-2.31;80.27
64211;BME280;50528;48.514;14.394;2022-12-17T00:58:48;93649.41;;;-2.30;80.41
64211;BME280;50528;48.514;14.394;2022-12-17T00:59:41;93653.41;;;-2.29;80.41
64211;BME280;50528;48.514;14.394;2022-12-17T01:00:34;93656.29;;;-2.27;80.35
64211;BME280;50528;48.514;14.394;2022-12-17T01:01:28;93660.09;;;-2.26;80.24
64211;BME280;50528;48.514;14.394;2022-12-17T01:02:21;93657.54;;;-2.26;80.33
64211;BME280;50528;48.514;14.394;2022-12-17T01:03:14;93667.28;;;-2.23;80.38
64211;BME280;50528;48.514;14.394;2022-12-17T01:04:07;93668.02;;;-2.22;80.31
64211;BME280;50528;48.514;14.394;2022-12-17T01:04:59;93669.27;;;-2.21;80.31
64211;BME280;50528;48.514;14.394;2022-12-17T01:05:52;93672.88;;;-2.18;80.24
64211;BME280;50528;48.514;14.394;2022-12-17T01:06:44;93673.23;;;-2.18;80.35
64211;BME280;50528;48.514;14.394;2022-12-17T01:07:36;93675.17;;;-2.19;80.27
64211;BME280;50528;48.514;14.394;2022-12-17T01:08:29;93674.70;;;-2.17;80.09
64211;BME280;50528;48.514;14.394;2022-12-17T01:09:23;93663.10;;;-2.24;80.08
64211;BME280;50528;48.514;14.394;2022-12-17T01:10:16;93672.61;;;-2.17;80.34
64211;BME280;50528;48.514;14.394;2022-12-17T01:11:08;93668.64;;;-2.17;80.09
64211;BME280;50528;48.514;14.394;2022-12-17T01:12:01;93669.28;;;-2.15;80.28
64211;BME280;50528;48.514;14.394;2022-12-17T01:12:55;93670.02;;;-2.14;80.20
64211;BME280;50528;48.514;14.394;2022-12-17T01:13:48;93676.39;;;-2.14;80.02
64211;BME280;50528;48.514;14.394;2022-12-17T01:14:44;93682.98;;;-2.17;80.12
64211;BME280;50528;48.514;14.394;2022-12-17T01:15:36;93684.25;;;-2.17;80.32
64211;BME280;50528;48.514;14.394;2022-12-17T01:16:31;93684.33;;;-2.18;80.09
64211;BME280;50528;48.514;14.394;2022-12-17T01:17:23;93680.64;;;-2.18;80.26
64211;BME280;50528;48.514;14.394;2022-12-17T01:18:17;93678.63;;;-2.19;80.32
64211;BME280;50528;48.514;14.394;2022-12-17T01:19:09;93674.46;;;-2.18;80.18
64211;BME280;50528;48.514;14.394;2022-12-17T01:20:03;93667.98;;;-2.25;80.45
64211;BME280;50528;48.514;14.394;2022-12-17T01:20:56;93674.77;;;-2.21;80.35
64211;BME280;50528;48.514;14.394;2022-12-17T01:21:48;93681.75;;;-2.18;80.59
64211;BME280;50528;48.514;14.394;2022-12-17T01:22:42;93683.26;;;-2.17;80.35
64211;BME280;50528;48.514;14.394;2022-12-17T01:23:38;93678.25;;;-2.18;80.34
64211;BME280;50528;48.514;14.394;2022-12-17T01:24:31;93684.95;;;-2.16;80.30
64211;BME280;50528;48.514;14.394;2022-12-17T01:25:25;93681.87;;;-2.16;80.64
64211;BME280;50528;48.514;14.394;2022-12-17T01:26:18;93681.54;;;-2.19;80.47
64211;BME280;50528;48.514;14.394;2022-12-17T01:27:12;93662.72;;;-2.27;80.48
64211;BME280;50528;48.514;14.394;2022-12-17T01:28:11;93687.62;;;-2.13;80.40
64211;BME280;50528;48.514;14.394;2022-12-17T01:29:14;93677.86;;;-2.16;80.55
64211;BME280;50528;48.514;14.394;2022-12-17T01:30:09;93684.94;;;-2.11;80.45
64211;BME280;50528;48.514;14.394;2022-12-17T01:31:02;93684.27;;;-2.10;80.47
64211;BME280;50528;48.514;14.394;2022-12-17T01:31:57;93682.26;;;-2.09;80.52
64211;BME280;50528;48.514;14.394;2022-12-17T01:33:10;93683.48;;;-2.09;80.41
64211;BME280;50528;48.514;14.394;2022-12-17T01:34:12;93684.20;;;-2.14;80.56
64211;BME280;50528;48.514;14.394;2022-12-17T01:35:05;93682.69;;;-2.09;80.62
64211;BME280;50528;48.514;14.394;2022-12-17T01:36:12;93687.29;;;-2.09;80.43
64211;BME280;50528;48.514;14.394;2022-12-17T01:37:06;93685.55;;;-2.09;80.44
64211;BME280;50528;48.514;14.394;2022-12-17T01:37:58;93686.36;;;-2.08;80.42
64211;BME280;50528;48.514;14.394;2022-12-17T01:39:07;93691.95;;;-2.09;80.39
64211;BME280;50528;48.514;14.394;2022-12-17T01:40:00;93688.83;;;-2.09;80.37
64211;BME280;50528;48.514;14.394;2022-12-17T01:40:57;93691.92;;;-2.09;80.45
64211;BME280;50528;48.514;14.394;2022-12-17T01:41:49;93689.84;;;-2.13;80.45
64211;BME280;50528;48.514;14.394;2022-12-17T01:42:44;93695.50;;;-2.09;80.49
64211;BME280;50528;48.514;14.394;2022-12-17T01:43:39;93700.21;;;-2.05;80.51
64211;BME280;50528;48.514;14.394;2022-12-17T01:45:44;93707.17;;;-2.06;80.30
64211;BME280;50528;48.514;14.394;2022-12-17T01:46:40;93713.80;;;-2.08;80.23
64211;BME280;50528;48.514;14.394;2022-12-17T01:47:43;93712.87;;;-2.09;80.29
64211;BME280;50528;48.514;14.394;2022-12-17T01:48:41;93717.05;;;-2.10;80.20
64211;BME280;50528;48.514;14.394;2022-12-17T01:49:35;93713.16;;;-2.13;80.24
64211;BME280;50528;48.514;14.394;2022-12-17T01:50:40;93711.02;;;-2.18;80.18
64211;BME280;50528;48.514;14.394;2022-12-17T01:51:34;93728.88;;;-2.18;80.10
64211;BME280;50528;48.514;14.394;2022-12-17T01:52:29;93728.73;;;-2.20;80.30
64211;BME280;50528;48.514;14.394;2022-12-17T01:53:26;93729.41;;;-2.22;80.29
64211;BME280;50528;48.514;14.394;2022-12-17T01:54:20;93730.23;;;-2.24;80.48
64211;BME280;50528;48.514;14.394;2022-12-17T01:55:12;93729.28;;;-2.25;80.36
64211;BME280;50528;48.514;14.394;2022-12-17T01:56:05;93728.48;;;-2.24;80.49
64211;BME280;50528;48.514;14.394;2022-12-17T01:56:58;93727.48;;;-2.23;80.40
64211;BME280;50528;48.514;14.394;2022-12-17T01:57:52;93728.86;;;-2.21;80.48
64211;BME280;50528;48.514;14.394;2022-12-17T01:58:44;93731.14;;;-2.20;80.56
64211;BME280;50528;48.514;14.394;2022-12-17T01:59:44;93712.58;;;-2.29;80.47
64211;BME280;50528;48.514;14.394;2022-12-17T02:00:45;93725.31;;;-2.17;80.54
64211;BME280;50528;48.514;14.394;2022-12-17T02:01:38;93723.31;;;-2.17;80.60
64211;BME280;50528;48.514;14.394;2022-12-17T02:02:31;93731.23;;;-2.15;80.57
64211;BME280;50528;48.514;14.394;2022-12-17T02:03:24;93727.33;;;-2.14;80.43
64211;BME280;50528;48.514;14.394;2022-12-17T02:04:18;93732.06;;;-2.13;80.48
64211;BME280;50528;48.514;14.394;2022-12-17T02:05:10;93729.89;;;-2.12;80.64
64211;BME280;50528;48.514;14.394;2022-12-17T02:06:33;93729.65;;;-2.12;80.50
64211;BME280;50528;48.514;14.394;2022-12-17T02:08:41;93730.64;;;-2.13;80.53
64211;BME280;50528;48.514;14.394;2022-12-17T02:09:49;93732.90;;;-2.13;80.61
64211;BME280;50528;48.514;14.394;2022-12-17T02:11:06;93732.89;;;-2.13;80.46
64211;BME280;50528;48.514;14.394;2022-12-17T02:12:16;93733.30;;;-2.12;80.66
64211;BME280;50528;48.514;14.394;2022-12-17T02:13:18;93721.67;;;-2.21;80.49
64211;BME280;50528;48.514;14.394;2022-12-17T02:15:47;93732.52;;;-2.11;80.69
64211;BME280;50528;48.514;14.394;2022-12-17T02:16:50;93732.51;;;-2.10;80.79
64211;BME280;50528;48.514;14.394;2022-12-17T02:17:52;93726.45;;;-2.09;80.97
64211;BME280;50528;48.514;14.394;2022-12-17T02:20:31;93727.69;;;-2.07;80.85
64211;BME280;50528;48.514;14.394;2022-12-17T02:21:49;93726.08;;;-2.08;81.12
64211;BME280;50528;48.514;14.394;2022-12-17T02:24:30;93730.79;;;-2.05;80.94
64211;BME280;50528;48.514;14.394;2022-12-17T02:25:46;93735.84;;;-2.04;80.90
64211;BME280;50528;48.514;14.394;2022-12-17T02:26:50;93741.09;;;-2.03;80.98
64211;BME280;50528;48.514;14.394;2022-12-17T02:27:44;93741.72;;;-2.01;81.00
64211;BME280;50528;48.514;14.394;2022-12-17T02:28:40;93741.19;;;-1.99;80.96
64211;BME280;50528;48.514;14.394;2022-12-17T02:29:39;93748.25;;;-1.98;80.74
64211;BME280;50528;48.514;14.394;2022-12-17T02:30:33;93744.29;;;-1.97;80.84
64211;BME280;50528;48.514;14.394;2022-12-17T02:31:28;93746.54;;;-1.95;80.75
64211;BME280;50528;48.514;14.394;2022-12-17T02:32:21;93744.40;;;-1.95;80.86
64211;BME280;50528;48.514;14.394;2022-12-17T02:33:16;93743.19;;;-1.93;80.86
64211;BME280;50528;48.514;14.394;2022-12-17T02:34:10;93746.40;;;-1.91;80.96
64211;BME280;50528;48.514;14.394;2022-12-17T02:35:11;93746.52;;;-1.91;80.98
64211;BME280;50528;48.514;14.394;2022-12-17T02:36:05;93745.68;;;-1.89;80.97
64211;BME280;50528;48.514;14.394;2022-12-17T02:36:58;93747.98;;;-1.88;80.87
64211;BME280;50528;48.514;14.394;2022-12-17T02:37:51;93743.91;;;-1.87;81.05
64211;BME280;50528;48.514;14.394;2022-12-17T02:38:47;93747.70;;;-1.86;80.93
64211;BME280;50528;48.514;14.394;2022-12-17T02:39:41;93743.65;;;-1.85;80.80
64211;BME280;50528;48.514;14.394;2022-12-17T02:40:36;93746.64;;;-1.84;81.05
64211;BME280;50528;48.514;14.394;2022-12-17T02:41:34;93748.92;;;-1.83;80.78
64211;BME280;50528;48.514;14.394;2022-12-17T02:42:28;93748.48;;;-1.82;80.85
64211;BME280;50528;48.514;14.394;2022-12-17T02:43:24;93748.05;;;-1.82;80.73
64211;BME280;50528;48.514;14.394;2022-12-17T02:44:19;93747.89;;;-1.82;80.79
64211;BME280;50528;48.514;14.394;2022-12-17T02:45:14;93744.67;;;-1.82;80.50
64211;BME280;50528;48.514;14.394;2022-12-17T02:46:07;93744.83;;;-1.84;80.53
64211;BME280;50528;48.514;14.394;2022-12-17T02:47:03;93746.53;;;-1.83;80.53
64211;BME280;50528;48.514;14.394;2022-12-17T02:47:58;93748.92;;;-1.85;80.45
64211;BME280;50528;48.514;14.394;2022-12-17T02:48:52;93751.20;;;-1.90;80.43
64211;BME280;50528;48.514;14.394;2022-12-17T02:50:42;93750.09;;;-1.93;80.46
64211;BME280;50528;48.514;14.394;2022-12-17T02:51:34;93750.73;;;-2.02;80.51
64211;BME280;50528;48.514;14.394;2022-12-17T02:52:27;93755.45;;;-2.04;80.58
64211;BME280;50528;48.514;14.394;2022-12-17T02:53:19;93757.52;;;-2.06;80.73
64211;BME280;50528;48.514;14.394;2022-12-17T02:54:11;93756.39;;;-2.05;80.60
64211;BME280;50528;48.514;14.394;2022-12-17T02:55:04;93759.83;;;-2.03;80.62
64211;BME280;50528;48.514;14.394;2022-12-17T02:55:56;93759.08;;;-2.03;80.65
64211;BME280;50528;48.514;14.394;2022-12-17T02:56:49;93760.20;;;-2.02;80.61
64211;BME280;50528;48.514;14.394;2022-12-17T02:57:41;93760.10;;;-2.01;80.83
64211;BME280;50528;48.514;14.394;2022-12-17T02:58:33;93763.96;;;-1.99;80.58
64211;BME280;50528;48.514;14.394;2022-12-17T02:59:25;93765.31;;;-1.97;80.70
64211;BME280;50528;48.514;14.394;2022-12-17T03:00:20;93767.78;;;-1.96;80.67
64211;BME280;50528;48.514;14.394;2022-12-17T03:01:14;93766.78;;;-1.95;80.62
64211;BME280;50528;48.514;14.394;2022-12-17T03:02:07;93768.70;;;-1.94;80.71
64211;BME280;50528;48.514;14.394;2022-12-17T03:03:02;93765.79;;;-1.92;80.72
64211;BME280;50528;48.514;14.394;2022-12-17T03:03:54;93769.90;;;-1.91;80.84
64211;BME280;50528;48.514;14.394;2022-12-17T03:04:47;93768.13;;;-1.90;80.64
64211;BME280;50528;48.514;14.394;2022-12-17T03:05:59;93777.30;;;-1.91;80.58
64211;BME280;50528;48.514;14.394;2022-12-17T03:06:51;93779.69;;;-1.91;80.65
64211;BME280;50528;48.514;14.394;2022-12-17T03:07:44;93785.89;;;-1.89;80.72
64211;BME280;50528;48.514;14.394;2022-12-17T03:08:36;93786.43;;;-1.93;80.70
64211;BME280;50528;48.514;14.394;2022-12-17T03:09:28;93792.69;;;-1.90;80.59
64211;BME280;50528;48.514;14.394;2022-12-17T03:10:20;93793.53;;;-1.90;80.77
64211;BME280;50528;48.514;14.394;2022-12-17T03:11:12;93794.38;;;-1.89;80.74
64211;BME280;50528;48.514;14.394;2022-12-17T03:12:04;93789.84;;;-1.88;80.78
64211;BME280;50528;48.514;14.394;2022-12-17T03:12:57;93796.07;;;-1.87;80.56
64211;BME280;50528;48.514;14.394;2022-12-17T03:13:49;93797.61;;;-1.87;80.61
64211;BME280;50528;48.514;14.394;2022-12-17T03:14:41;93796.39;;;-1.87;80.68
64211;BME280;50528;48.514;14.394;2022-12-17T03:15:33;93801.54;;;-1.87;80.58
64211;BME280;50528;48.514;14.394;2022-12-17T03:16:25;93801.67;;;-1.86;80.66
64211;BME280;50528;48.514;14.394;2022-12-17T03:17:17;93801.03;;;-1.87;80.55
64211;BME280;50528;48.514;14.394;2022-12-17T03:18:10;93805.05;;;-1.87;80.59
64211;BME280;50528;48.514;14.394;2022-12-17T03:19:02;93807.44;;;-1.87;80.66
64211;BME280;50528;48.514;14.394;2022-12-17T03:19:54;93811.27;;;-1.88;80.80
64211;BME280;50528;48.514;14.394;2022-12-17T03:20:51;93811.83;;;-1.88;80.73
64211;BME280;50528;48.514;14.394;2022-12-17T03:21:43;93808.09;;;-1.88;80.54
64211;BME280;50528;48.514;14.394;2022-12-17T03:22:35;93808.99;;;-1.89;80.54
64211;BME280;50528;48.514;14.394;2022-12-17T03:23:27;93811.52;;;-1.90;80.57
64211;BME280;50528;48.514;14.394;2022-12-17T03:24:27;93813.77;;;-1.90;80.60
64211;BME280;50528;48.514;14.394;2022-12-17T03:25:19;93813.48;;;-1.91;80.54
64211;BME280;50528;48.514;14.394;2022-12-17T03:26:11;93815.90;;;-1.91;80.55
64211;BME280;50528;48.514;14.394;2022-12-17T03:27:03;93817.13;;;-1.91;80.85
64211;BME280;50528;48.514;14.394;2022-12-17T03:27:56;93819.02;;;-1.89;80.73
64211;BME280;50528;48.514;14.394;2022-12-17T03:28:53;93816.80;;;-1.88;80.68
64211;BME280;50528;48.514;14.394;2022-12-17T03:29:45;93821.85;;;-1.88;80.88
64211;BME280;50528;48.514;14.394;2022-12-17T03:30:37;93818.51;;;-1.87;80.73
64211;BME280;50528;48.514;14.394;2022-12-17T03:31:29;93819.60;;;-1.86;80.65
64211;BME280;50528;48.514;14.394;2022-12-17T03:32:21;93822.66;;;-1.85;80.67
64211;BME280;50528;48.514;14.394;2022-12-17T03:33:13;93823.81;;;-1.85;80.69
64211;BME280;50528;48.514;14.394;2022-12-17T03:34:06;93823.50;;;-1.84;80.59
64211;BME280;50528;48.514;14.394;2022-12-17T03:34:58;93821.01;;;-1.83;80.59
64211;BME280;50528;48.514;14.394;2022-12-17T03:35:54;93820.98;;;-1.84;80.61
64211;BME280;50528;48.514;14.394;2022-12-17T03:36:47;93823.45;;;-1.83;80.69
64211;BME280;50528;48.514;14.394;2022-12-17T03:37:38;93819.40;;;-1.84;80.68
64211;BME280;50528;48.514;14.394;2022-12-17T03:38:31;93821.39;;;-1.83;80.81
64211;BME280;50528;48.514;14.394;2022-12-17T03:39:23;93823.54;;;-1.84;80.80
64211;BME280;50528;48.514;14.394;2022-12-17T03:40:15;93832.53;;;-1.80;80.72
64211;BME280;50528;48.514;14.394;2022-12-17T03:41:07;93832.86;;;-1.80;80.63
64211;BME280;50528;48.514;14.394;2022-12-17T03:42:19;93836.02;;;-1.80;80.63
64211;BME280;50528;48.514;14.394;2022-12-17T03:43:11;93838.45;;;-1.81;80.46
64211;BME280;50528;48.514;14.394;2022-12-17T03:44:04;93839.05;;;-1.82;80.63
64211;BME280;50528;48.514;14.394;2022-12-17T03:44:56;93838.95;;;-1.82;80.54
64211;BME280;50528;48.514;14.394;2022-12-17T03:45:54;93835.21;;;-1.84;80.67
64211;BME280;50528;48.514;14.394;2022-12-17T03:46:47;93836.72;;;-1.84;80.58
64211;BME280;50528;48.514;14.394;2022-12-17T03:47:39;93834.88;;;-1.83;80.46
64211;BME280;50528;48.514;14.394;2022-12-17T03:48:31;93834.93;;;-1.88;80.52
64211;BME280;50528;48.514;14.394;2022-12-17T03:49:23;93838.98;;;-1.87;80.68
64211;BME280;50528;48.514;14.394;2022-12-17T03:50:15;93838.80;;;-1.88;80.48
64211;BME280;50528;48.514;14.394;2022-12-17T03:51:07;93837.73;;;-1.94;80.67
64211;BME280;50528;48.514;14.394;2022-12-17T03:51:59;93842.01;;;-1.94;80.89
64211;BME280;50528;48.514;14.394;2022-12-17T03:52:51;93841.61;;;-1.98;80.67
64211;BME280;50528;48.514;14.394;2022-12-17T03:53:57;93840.60;;;-2.06;80.97
64211;BME280;50528;48.514;14.394;2022-12-17T03:54:49;93840.36;;;-2.04;81.08
64211;BME280;50528;48.514;14.394;2022-12-17T03:55:42;93839.58;;;-2.04;80.97
64211;BME280;50528;48.514;14.394;2022-12-17T03:56:34;93842.05;;;-2.07;81.27
64211;BME280;50528;48.514;14.394;2022-12-17T03:57:26;93838.48;;;-2.09;81.23
64211;BME280;50528;48.514;14.394;2022-12-17T03:58:18;93838.45;;;-2.13;81.30
64211;BME280;50528;48.514;14.394;2022-12-17T03:59:11;93842.86;;;-2.10;81.20
64211;BME280;50528;48.514;14.394;2022-12-17T04:00:04;93844.02;;;-2.09;81.44
64211;BME280;50528;48.514;14.394;2022-12-17T04:00:56;93845.59;;;-2.10;81.23
64211;BME280;50528;48.514;14.394;2022-12-17T04:01:48;93845.21;;;-2.08;81.18
64211;BME280;50528;48.514;14.394;2022-12-17T04:02:41;93853.33;;;-2.09;81.15
64211;BME280;50528;48.514;14.394;2022-12-17T04:03:33;93849.55;;;-2.11;81.33
64211;BME280;50528;48.514;14.394;2022-12-17T04:04:25;93848.23;;;-2.15;81.35
64211;BME280;50528;48.514;14.394;2022-12-17T04:05:17;93852.63;;;-2.11;81.33
64211;BME280;50528;48.514;14.394;2022-12-17T04:06:10;93852.98;;;-2.11;81.32
64211;BME280;50528;48.514;14.394;2022-12-17T04:07:02;93855.79;;;-2.13;81.27
64211;BME280;50528;48.514;14.394;2022-12-17T04:07:55;93857.99;;;-2.14;81.39
64211;BME280;50528;48.514;14.394;2022-12-17T04:08:47;93858.96;;;-2.15;81.49
64211;BME280;50528;48.514;14.394;2022-12-17T04:09:39;93860.09;;;-2.15;81.57
64211;BME280;50528;48.514;14.394;2022-12-17T04:10:31;93856.42;;;-2.15;81.55
64211;BME280;50528;48.514;14.394;2022-12-17T04:11:24;93859.27;;;-2.13;81.79
64211;BME280;50528;48.514;14.394;2022-12-17T04:12:16;93862.75;;;-2.12;81.57
64211;BME280;50528;48.514;14.394;2022-12-17T04:13:08;93866.04;;;-2.12;81.56
64211;BME280;50528;48.514;14.394;2022-12-17T04:14:00;93864.58;;;-2.12;81.59
64211;BME280;50528;48.514;14.394;2022-12-17T04:14:52;93868.57;;;-2.12;81.77
64211;BME280;50528;48.514;14.394;2022-12-17T04:15:44;93870.17;;;-2.11;81.70
64211;BME280;50528;48.514;14.394;2022-12-17T04:16:36;93870.89;;;-2.13;81.87
64211;BME280;50528;48.514;14.394;2022-12-17T04:17:28;93871.84;;;-2.06;81.57
64211;BME280;50528;48.514;14.394;2022-12-17T04:18:20;93874.50;;;-2.15;81.64
64211;BME280;50528;48.514;14.394;2022-12-17T04:19:12;93875.27;;;-2.17;81.65
64211;BME280;50528;48.514;14.394;2022-12-17T04:20:04;93881.13;;;-2.17;81.87
64211;BME280;50528;48.514;14.394;2022-12-17T04:20:57;93881.52;;;-2.19;81.82
64211;BME280;50528;48.514;14.394;2022-12-17T04:21:49;93884.09;;;-2.19;81.86
64211;BME280;50528;48.514;14.394;2022-12-17T04:22:42;93885.57;;;-2.15;81.90
64211;BME280;50528;48.514;14.394;2022-12-17T04:23:34;93886.64;;;-2.14;81.63
64211;BME280;50528;48.514;14.394;2022-12-17T04:24:26;93886.92;;;-2.14;81.58
64211;BME280;50528;48.514;14.394;2022-12-17T04:25:39;93889.20;;;-2.14;81.67
64211;BME280;50528;48.514;14.394;2022-12-17T04:26:32;93887.21;;;-2.16;81.48
64211;BME280;50528;48.514;14.394;2022-12-17T04:27:24;93887.17;;;-2.19;81.66
64211;BME280;50528;48.514;14.394;2022-12-17T04:28:16;93887.10;;;-2.25;81.93
64211;BME280;50528;48.514;14.394;2022-12-17T04:29:08;93889.23;;;-2.25;82.14
64211;BME280;50528;48.514;14.394;2022-12-17T04:30:00;93888.09;;;-2.24;81.90
64211;BME280;50528;48.514;14.394;2022-12-17T04:30:52;93891.23;;;-2.26;81.96
64211;BME280;50528;48.514;14.394;2022-12-17T04:31:45;93890.08;;;-2.26;82.01
64211;BME280;50528;48.514;14.394;2022-12-17T04:32:37;93890.36;;;-2.28;82.05
64211;BME280;50528;48.514;14.394;2022-12-17T04:33:29;93894.77;;;-2.29;82.03
64211;BME280;50528;48.514;14.394;2022-12-17T04:34:21;93893.13;;;-2.28;82.08
64211;BME280;50528;48.514;14.394;2022-12-17T04:35:13;93894.12;;;-2.27;82.10
64211;BME280;50528;48.514;14.394;2022-12-17T04:36:06;93893.25;;;-2.27;82.09
64211;BME280;50528;48.514;14.394;2022-12-17T04:36:58;93894.54;;;-2.25;82.09
64211;BME280;50528;48.514;14.394;2022-12-17T04:37:50;93897.36;;;-2.24;82.26
64211;BME280;50528;48.514;14.394;2022-12-17T04:38:43;93897.65;;;-2.17;82.15
64211;BME280;50528;48.514;14.394;2022-12-17T04:39:35;93902.45;;;-2.19;81.95
64211;BME280;50528;48.514;14.394;2022-12-17T04:40:27;93901.08;;;-2.15;81.90
64211;BME280;50528;48.514;14.394;2022-12-17T04:41:19;93904.27;;;-2.20;82.12
64211;BME280;50528;48.514;14.394;2022-12-17T04:42:11;93901.71;;;-2.25;82.05
64211;BME280;50528;48.514;14.394;2022-12-17T04:43:12;93895.88;;;-2.31;82.24
64211;BME280;50528;48.514;14.394;2022-12-17T04:44:04;93904.36;;;-2.28;82.19
64211;BME280;50528;48.514;14.394;2022-12-17T04:44:57;93904.40;;;-2.30;82.44
64211;BME280;50528;48.514;14.394;2022-12-17T04:45:49;93909.97;;;-2.25;82.41
64211;BME280;50528;48.514;14.394;2022-12-17T04:46:42;93908.13;;;-2.30;82.49
64211;BME280;50528;48.514;14.394;2022-12-17T04:47:34;93906.80;;;-2.30;82.46
64211;BME280;50528;48.514;14.394;2022-12-17T04:48:26;93906.00;;;-2.35;82.62
64211;BME280;50528;48.514;14.394;2022-12-17T04:49:18;93911.90;;;-2.30;82.66
64211;BME280;50528;48.514;14.394;2022-12-17T04:50:10;93915.96;;;-2.33;82.68
64211;BME280;50528;48.514;14.394;2022-12-17T04:51:03;93911.96;;;-2.36;82.62
64211;BME280;50528;48.514;14.394;2022-12-17T04:51:55;93914.98;;;-2.36;82.71
64211;BME280;50528;48.514;14.394;2022-12-17T04:52:47;93916.45;;;-2.32;82.80